Flight Track Log - Related Links

Times and Time Zones

All times are in EDT time to prevent confusion due to time zone crossing. See the N6711L flight status page for this flight to view local times or setup timezone preferences in your user account.

Time Position Orientation Groundspeed Altitude Reporting Facility
EDT Latitude Longitude Course Direction KTS MPH feet Rate Location/Type
Thu 10:41:00 AM 24.8272 -81.7623 37° Northeast  Level Estimated
Thu 10:42:00 AM 24.8545 -81.7226 53° Northeast  Level FlightAware Approximate
Thu 10:43:00 AM 24.8819 -81.6830 53° Northeast  Level FlightAware Approximate
Thu 10:43:17 AM 24.8161 -81.6383 43° Northeast 180 207 6,100  Level Miami Center
Thu 10:44:00 AM 24.9092 -81.6433 53° Northeast  Level FlightAware Approximate
Thu 10:44:17 AM 24.8528 -81.6008 43° Northeast 175 201 6,100  Level Miami Center
Thu 10:45:00 AM 24.9542 -81.6480 339° North  Level Estimated
Thu 10:45:17 AM 24.8894 -81.5681 39° Northeast 175 201 6,200  Level Miami Center
Thu 10:46:00 AM 24.9993 -81.6454 North  Level FlightAware Approximate
Thu 10:46:17 AM 24.9303 -81.5353 36° Northeast 175 201 6,100  Level Miami Center
Thu 10:47:17 AM 24.9764 -81.5231 14° North 169 194 6,100  Level Miami Center
Thu 10:48:17 AM 25.0267 -81.5206 North 164 189 6,100  Level Miami Center
Thu 10:49:17 AM 25.0769 -81.5200 North 174 200 6,100 50 Level Miami Center
Thu 10:50:17 AM 25.1269 -81.5197 360° North 174 200 6,200  Climbing Miami Center
Thu 10:51:17 AM 25.1667 -81.5189 North 174 200 6,100 -50 Descending Miami Center
Thu 10:52:17 AM 25.2272 -81.5189 360° North 174 200 6,100  Level Miami Center
Thu 10:53:17 AM 25.2772 -81.5231 356° North 179 206 6,100  Level Miami Center
Thu 10:54:17 AM 25.3247 -81.5411 341° North 179 206 6,100  Level Miami Center
Thu 10:55:17 AM 25.3744 -81.5544 346° North 179 206 6,100  Level Miami Center
Thu 10:56:17 AM 25.4178 -81.5700 342° North 184 212 6,100 50 Level Miami Center
Thu 10:57:17 AM 25.4675 -81.5833 346° North 184 212 6,200 50 Climbing Miami Center
Thu 10:58:17 AM 25.5150 -81.5967 346° North 184 212 6,200  Level Miami Center
Thu 10:59:17 AM 25.5689 -81.6103 347° North 184 212 6,200  Level Miami Center
Thu 11:00:17 AM 25.6164 -81.6239 346° North 184 212 6,200 -450 Level Miami Center
Thu 11:01:17 AM 25.6683 -81.6372 347° North 184 212 5,300 -500 Descending Miami Center
Thu 11:02:17 AM 25.7136 -81.6553 340° North 184 212 5,200 -636 Descending Miami Center
Thu 11:03:29 AM 25.7861 -81.6697 350° North 169 194 3,900 -909 Descending Miami Center
Thu 11:04:29 AM 25.8361 -81.6739 356° North 169 194 3,200 -700 Descending Miami Center
Thu 11:05:29 AM 25.8922 -81.6831 352° North 187 215 2,500 -700 Descending Miami Center
Thu 11:06:29 AM 25.9442 -81.6944 349° North 192 221 1,800 -300 Descending Miami Center
Thu 11:07:29 AM 25.9939 -81.6989 355° North 185 213 1,900  Climbing Miami Center
Thu 11:08:29 AM 26.0394 -81.7144 343° North 168 193 1,800 -150 Descending Miami Center
Thu 11:09:29 AM 26.0761 -81.7439 324° Northwest 162 186 1,600 -200 Descending Miami Center
Thu 11:11:00 AM 26.1384 -81.7631 345° North  Level FlightAware Approximate
Thu 11:18:00 AM 26.1500 -81.7667 340° North  Level FlightAware Approximate
Thu 11:19:00 AM 26.1524 -81.7756 340° North  Level Estimated

Login

Don't have an account? Register now (free) for customized features, flight alerts, and more!